Wetterdaten: Woche 21.10.13 - 27.10.13 (KW43)
Datum Zeit Temp. Aussen +5cm Feuchte Auss Luftdruck Regen Sonnenschein Regendauer UV Solar Windben
21.10.2013 00:00 14,8 C 13,0 C 86 % 1012,2 hPa 0,0 l/m 0,00 h 0,00 h 0,0 UV-I 0 W/m 11,7 km/h (2 Bft)
21.10.2013 01:00 14,0 C 12,1 C 88 % 1012,6 hPa 0,0 l/m 0,00 h 0,00 h 0,0 UV-I 0 W/m 8,3 km/h (2 Bft)
21.10.2013 02:00 13,2 C 11,7 C 91 % 1012,9 hPa 0,0 l/m 0,00 h 0,00 h 0,0 UV-I 0 W/m 7,0 km/h (2 Bft)
21.10.2013 03:00 12,8 C 11,1 C 92 % 1012,9 hPa 0,0 l/m 0,00 h 0,00 h 0,0 UV-I 0 W/m 4,2 km/h (1 Bft)
21.10.2013 04:00 12,3 C 10,6 C 94 % 1012,6 hPa 0,0 l/m 0,00 h 0,00 h 0,0 UV-I 0 W/m 1,6 km/h (1 Bft)
21.10.2013 05:00 12,3 C 10,8 C 94 % 1012,6 hPa 0,0 l/m 0,00 h 0,00 h 0,0 UV-I 0 W/m 3,5 km/h (1 Bft)
21.10.2013 06:00 12,1 C 10,4 C 95 % 1012,6 hPa 0,0 l/m 0,00 h 0,00 h 0,0 UV-I 0 W/m 0,6 km/h (0 Bft)
21.10.2013 07:00 12,1 C 10,8 C 96 % 1012,6 hPa 0,0 l/m 0,00 h 0,07 h 0,0 UV-I 0 W/m 0,6 km/h (0 Bft)
21.10.2013 08:00 12,5 C 11,5 C 97 % 1012,9 hPa 0,0 l/m 0,00 h 0,10 h 0,0 UV-I 11 W/m 2,5 km/h (1 Bft)
21.10.2013 09:00 13,5 C 12,8 C 97 % 1013,3 hPa 0,0 l/m 0,00 h 0,00 h 0,0 UV-I 36 W/m 3,6 km/h (1 Bft)
21.10.2013 10:00 14,9 C 14,0 C 92 % 1013,4 hPa 0,0 l/m 0,00 h 0,10 h 0,0 UV-I 97 W/m 5,2 km/h (1 Bft)
21.10.2013 11:00 16,1 C 15,3 C 88 % 1013,5 hPa 0,0 l/m 0,17 h 0,00 h 0,6 UV-I 197 W/m 7,5 km/h (2 Bft)
21.10.2013 12:00 17,7 C 16,4 C 82 % 1013,5 hPa 0,0 l/m 0,60 h 0,00 h 0,6 UV-I 310 W/m 14,6 km/h (3 Bft)
21.10.2013 13:00 18,0 C 16,8 C 81 % 1013,5 hPa 0,0 l/m 0,00 h 0,00 h 0,5 UV-I 170 W/m 11,9 km/h (2 Bft)
21.10.2013 14:00 17,9 C 16,7 C 80 % 1013,4 hPa 0,0 l/m 0,00 h 0,00 h 0,0 UV-I 137 W/m 6,9 km/h (2 Bft)
21.10.2013 15:00 18,0 C 16,9 C 79 % 1013,1 hPa 0,0 l/m 0,07 h 0,00 h 0,0 UV-I 153 W/m 5,9 km/h (2 Bft)
21.10.2013 16:00 18,7 C 17,1 C 77 % 1012,6 hPa 0,0 l/m 0,03 h 0,00 h 0,0 UV-I 113 W/m 5,3 km/h (1 Bft)
21.10.2013 17:00 18,2 C 16,2 C 80 % 1012,3 hPa 0,0 l/m 0,00 h 0,00 h 0,0 UV-I 40 W/m 0,2 km/h (0 Bft)
21.10.2013 18:00 17,2 C 15,1 C 84 % 1012,1 hPa 0,0 l/m 0,00 h 0,00 h 0,0 UV-I 10 W/m 3,2 km/h (1 Bft)
21.10.2013 19:00 16,3 C 14,3 C 86 % 1012,2 hPa 0,0 l/m 0,00 h 0,00 h 0,0 UV-I 0 W/m 6,9 km/h (2 Bft)
21.10.2013 20:00 15,4 C 13,5 C 89 % 1012,1 hPa 0,0 l/m 0,00 h 0,07 h 0,0 UV-I 0 W/m 9,1 km/h (2 Bft)
21.10.2013 21:00 15,0 C 13,3 C 90 % 1011,9 hPa 0,0 l/m 0,00 h 0,00 h 0,0 UV-I 0 W/m 10,7 km/h (2 Bft)
21.10.2013 22:00 14,7 C 13,0 C 89 % 1011,9 hPa 0,0 l/m 0,00 h 0,00 h 0,0 UV-I 0 W/m 11,4 km/h (2 Bft)
21.10.2013 23:00 14,0 C 12,2 C 92 % 1011,6 hPa 0,0 l/m 0,00 h 0,00 h 0,0 UV-I 0 W/m 7,2 km/h (2 Bft)
22.10.2013 00:00 13,6 C 11,9 C 93 % 1011,3 hPa 0,0 l/m 0,00 h 0,00 h 0,0 UV-I 0 W/m 1,2 km/h (1 Bft)
22.10.2013 01:00 13,3 C 12,0 C 95 % 1010,8 hPa 0,0 l/m 0,00 h 0,00 h 0,0 UV-I 0 W/m 7,4 km/h (2 Bft)
22.10.2013 02:00 13,7 C 12,7 C 95 % 1010,6 hPa 0,0 l/m 0,00 h 0,07 h 0,0 UV-I 0 W/m 7,5 km/h (2 Bft)
22.10.2013 03:00 14,1 C 12,8 C 94 % 1010,1 hPa 0,0 l/m 0,00 h 0,07 h 0,0 UV-I 0 W/m 9,3 km/h (2 Bft)
22.10.2013 04:00 14,1 C 12,4 C 94 % 1009,4 hPa 0,0 l/m 0,00 h 0,00 h 0,0 UV-I 0 W/m 6,6 km/h (2 Bft)
22.10.2013 05:00 14,1 C 12,7 C 96 % 1009,1 hPa 0,0 l/m 0,00 h 0,00 h 0,0 UV-I 0 W/m 11,2 km/h (2 Bft)
22.10.2013 06:00 14,2 C 12,8 C 96 % 1008,4 hPa 0,0 l/m 0,00 h 0,00 h 0,0 UV-I 0 W/m 13,7 km/h (3 Bft)
22.10.2013 07:00 14,2 C 12,8 C 96 % 1007,9 hPa 0,0 l/m 0,00 h 0,00 h 0,0 UV-I 0 W/m 14,4 km/h (3 Bft)
22.10.2013 08:00 14,3 C 12,8 C 97 % 1007,8 hPa 0,0 l/m 0,00 h 0,00 h 0,0 UV-I 15 W/m 16,4 km/h (3 Bft)
22.10.2013 09:00 14,6 C 13,3 C 96 % 1007,7 hPa 0,0 l/m 0,13 h 0,03 h 0,0 UV-I 65 W/m 16,2 km/h (3 Bft)
22.10.2013 10:00 16,4 C 14,9 C 93 % 1007,5 hPa 0,0 l/m 0,93 h 0,00 h 0,0 UV-I 215 W/m 20,4 km/h (4 Bft)
22.10.2013 11:00 18,7 C 16,9 C 86 % 1006,7 hPa 0,0 l/m 0,97 h 0,00 h 0,6 UV-I 320 W/m 19,0 km/h (3 Bft)
22.10.2013 12:00 20,7 C 18,7 C 81 % 1006,1 hPa 0,0 l/m 0,97 h 0,00 h 0,8 UV-I 364 W/m 17,9 km/h (3 Bft)
22.10.2013 13:00 21,9 C 19,9 C 76 % 1005,3 hPa 0,0 l/m 0,97 h 0,00 h 1,1 UV-I 400 W/m 22,8 km/h (4 Bft)
22.10.2013 14:00 21,7 C 19,9 C 75 % 1004,8 hPa 0,0 l/m 0,47 h 0,00 h 0,8 UV-I 276 W/m 22,7 km/h (4 Bft)
22.10.2013 15:00 22,7 C 20,5 C 72 % 1004,0 hPa 0,0 l/m 0,87 h 0,00 h 0,7 UV-I 282 W/m 18,0 km/h (3 Bft)
22.10.2013 16:00 22,2 C 20,0 C 73 % 1003,3 hPa 0,0 l/m 0,60 h 0,00 h 0,0 UV-I 179 W/m 18,7 km/h (3 Bft)
22.10.2013 17:00 20,9 C 18,6 C 76 % 1002,9 hPa 0,0 l/m 0,00 h 0,00 h 0,0 UV-I 27 W/m 13,1 km/h (3 Bft)
22.10.2013 18:00 19,5 C 16,9 C 81 % 1003,4 hPa 0,0 l/m 0,00 h 0,00 h 0,0 UV-I 11 W/m 4,0 km/h (1 Bft)
22.10.2013 19:00 18,6 C 15,8 C 84 % 1003,2 hPa 0,0 l/m 0,00 h 0,00 h 0,0 UV-I 0 W/m 0,6 km/h (0 Bft)
22.10.2013 20:00 18,3 C 15,9 C 85 % 1002,4 hPa 0,0 l/m 0,00 h 0,00 h 0,0 UV-I 0 W/m 4,3 km/h (1 Bft)
22.10.2013 21:00 18,4 C 16,5 C 84 % 1001,7 hPa 0,0 l/m 0,00 h 0,00 h 0,0 UV-I 0 W/m 10,8 km/h (2 Bft)
22.10.2013 22:00 17,0 C 14,9 C 89 % 1002,7 hPa 7,6 l/m 0,00 h 0,73 h 0,0 UV-I 0 W/m 14,7 km/h (3 Bft)
22.10.2013 23:00 15,1 C 13,5 C 96 % 1002,7 hPa 1,0 l/m 0,00 h 0,40 h 0,0 UV-I 0 W/m 2,9 km/h (1 Bft)
23.10.2013 00:00 14,9 C 13,5 C 98 % 1002,4 hPa 0,4 l/m 0,00 h 0,90 h 0,0 UV-I 0 W/m 12,5 km/h (3 Bft)
23.10.2013 01:00 14,9 C 13,5 C 98 % 1002,4 hPa 0,0 l/m 0,00 h 0,60 h 0,0 UV-I 0 W/m 11,4 km/h (2 Bft)
23.10.2013 02:00 15,0 C 13,4 C 98 % 1002,5 hPa 0,4 l/m 0,00 h 0,77 h 0,0 UV-I 0 W/m 14,1 km/h (3 Bft)
23.10.2013 03:00 15,1 C 13,5 C 98 % 1002,7 hPa 0,2 l/m 0,00 h 0,77 h 0,0 UV-I 0 W/m 14,3 km/h (3 Bft)
23.10.2013 04:00 15,1 C 13,3 C 98 % 1002,2 hPa 0,0 l/m 0,00 h 0,00 h 0,0 UV-I 0 W/m 12,7 km/h (3 Bft)
23.10.2013 05:00 15,0 C 13,3 C 98 % 1001,9 hPa 0,0 l/m 0,00 h 0,00 h 0,0 UV-I 0 W/m 14,2 km/h (3 Bft)
23.10.2013 06:00 14,8 C 13,0 C 98 % 1001,8 hPa 0,0 l/m 0,00 h 0,00 h 0,0 UV-I 0 W/m 11,9 km/h (2 Bft)
23.10.2013 07:00 14,8 C 13,2 C 97 % 1001,8 hPa 0,0 l/m 0,00 h 0,10 h 0,0 UV-I 0 W/m 18,1 km/h (3 Bft)
23.10.2013 08:00 15,3 C 13,5 C 96 % 1001,9 hPa 0,0 l/m 0,00 h 0,17 h 0,0 UV-I 8 W/m 18,1 km/h (3 Bft)
23.10.2013 09:00 15,9 C 14,1 C 94 % 1002,4 hPa 0,2 l/m 0,00 h 0,03 h 0,0 UV-I 36 W/m 14,7 km/h (3 Bft)
23.10.2013 10:00 16,5 C 14,9 C 93 % 1003,2 hPa 0,0 l/m 0,07 h 0,00 h 0,0 UV-I 92 W/m 17,4 km/h (3 Bft)
23.10.2013 11:00 18,1 C 16,3 C 87 % 1003,4 hPa 0,0 l/m 0,47 h 0,00 h 0,7 UV-I 253 W/m 14,5 km/h (3 Bft)
23.10.2013 12:00 19,0 C 17,2 C 79 % 1003,8 hPa 0,0 l/m 0,07 h 0,00 h 0,5 UV-I 128 W/m 19,0 km/h (3 Bft)
23.10.2013 13:00 18,8 C 16,1 C 77 % 1003,7 hPa 0,0 l/m 0,00 h 0,20 h 0,0 UV-I 111 W/m 20,1 km/h (4 Bft)
23.10.2013 14:00 19,3 C 17,3 C 73 % 1004,2 hPa 0,0 l/m 0,37 h 0,00 h 0,8 UV-I 271 W/m 21,8 km/h (4 Bft)
23.10.2013 15:00 19,3 C 17,5 C 73 % 1004,6 hPa 0,0 l/m 0,20 h 0,07 h 0,0 UV-I 171 W/m 16,0 km/h (3 Bft)
23.10.2013 16:00 18,9 C 16,9 C 70 % 1004,9 hPa 0,0 l/m 0,13 h 0,00 h 0,0 UV-I 95 W/m 16,2 km/h (3 Bft)
23.10.2013 17:00 18,4 C 16,2 C 72 % 1005,4 hPa 0,0 l/m 0,13 h 0,00 h 0,0 UV-I 49 W/m 16,8 km/h (3 Bft)
23.10.2013 18:00 17,7 C 15,6 C 75 % 1006,2 hPa 0,0 l/m 0,00 h 0,10 h 0,0 UV-I 7 W/m 12,9 km/h (3 Bft)
23.10.2013 19:00 15,5 C 13,0 C 89 % 1007,5 hPa 1,0 l/m 0,00 h 0,50 h 0,0 UV-I 0 W/m 3,6 km/h (1 Bft)
23.10.2013 20:00 14,6 C 12,7 C 95 % 1008,2 hPa 2,4 l/m 0,00 h 0,43 h 0,0 UV-I 0 W/m 2,0 km/h (1 Bft)
23.10.2013 21:00 14,4 C 12,6 C 96 % 1009,0 hPa 0,2 l/m 0,00 h 0,17 h 0,0 UV-I 0 W/m 2,6 km/h (1 Bft)
23.10.2013 22:00 14,2 C 12,5 C 96 % 1009,8 hPa 0,0 l/m 0,00 h 0,03 h 0,0 UV-I 0 W/m 0,6 km/h (0 Bft)
23.10.2013 23:00 14,2 C 12,2 C 95 % 1010,6 hPa 0,0 l/m 0,00 h 0,00 h 0,0 UV-I 0 W/m 3,1 km/h (1 Bft)
24.10.2013 00:00 14,0 C 11,9 C 94 % 1011,3 hPa 0,0 l/m 0,00 h 0,00 h 0,0 UV-I 0 W/m 1,9 km/h (1 Bft)
24.10.2013 01:00 13,8 C 11,7 C 93 % 1012,0 hPa 0,0 l/m 0,00 h 0,00 h 0,0 UV-I 0 W/m 4,8 km/h (1 Bft)
24.10.2013 02:00 13,6 C 11,7 C 93 % 1012,6 hPa 0,0 l/m 0,00 h 0,00 h 0,0 UV-I 0 W/m 1,2 km/h (1 Bft)
24.10.2013 03:00 12,7 C 11,0 C 94 % 1013,2 hPa 0,0 l/m 0,00 h 0,00 h 0,0 UV-I 0 W/m 1,9 km/h (1 Bft)
24.10.2013 04:00 12,1 C 10,5 C 95 % 1013,5 hPa 0,0 l/m 0,00 h 0,00 h 0,0 UV-I 0 W/m 0,4 km/h (0 Bft)
24.10.2013 05:00 11,6 C 10,1 C 96 % 1014,2 hPa 0,0 l/m 0,00 h 0,00 h 0,0 UV-I 0 W/m 0,3 km/h (0 Bft)
24.10.2013 06:00 11,1 C 9,5 C 97 % 1014,7 hPa 0,0 l/m 0,00 h 0,00 h 0,0 UV-I 0 W/m 0,0 km/h (0 Bft)
24.10.2013 07:00 10,6 C 9,0 C 98 % 1015,1 hPa 0,0 l/m 0,00 h 0,00 h 0,0 UV-I 0 W/m 0,0 km/h (0 Bft)
24.10.2013 08:00 10,6 C 9,4 C 98 % 1015,9 hPa 0,0 l/m 0,00 h 0,00 h 0,0 UV-I 16 W/m 0,4 km/h (0 Bft)
24.10.2013 09:00 11,1 C 10,1 C 98 % 1016,8 hPa 0,0 l/m 0,37 h 0,07 h 0,0 UV-I 84 W/m 0,5 km/h (0 Bft)
24.10.2013 10:00 12,6 C 11,3 C 98 % 1017,7 hPa 0,0 l/m 0,85 h 0,00 h 0,0 UV-I 198 W/m 0,9 km/h (0 Bft)
24.10.2013 11:00 13,8 C 12,3 C 92 % 1018,4 hPa 0,0 l/m 0,60 h 0,00 h 0,6 UV-I 249 W/m 2,7 km/h (1 Bft)
24.10.2013 12:00 15,0 C 13,2 C 86 % 1018,5 hPa 0,0 l/m 0,83 h 0,00 h 0,6 UV-I 341 W/m 2,9 km/h (1 Bft)
24.10.2013 13:00 15,9 C 14,2 C 80 % 1018,2 hPa 0,0 l/m 0,77 h 0,00 h 0,8 UV-I 352 W/m 3,6 km/h (1 Bft)
24.10.2013 14:00 16,1 C 14,1 C 78 % 1017,7 hPa 0,0 l/m 0,37 h 0,00 h 0,8 UV-I 192 W/m 1,2 km/h (1 Bft)
24.10.2013 15:00 16,7 C 14,2 C 75 % 1017,3 hPa 0,0 l/m 0,70 h 0,00 h 0,5 UV-I 277 W/m 1,2 km/h (1 Bft)
24.10.2013 16:00 16,8 C 14,3 C 74 % 1017,5 hPa 0,0 l/m 0,77 h 0,00 h 0,0 UV-I 193 W/m 2,4 km/h (1 Bft)
24.10.2013 17:00 15,3 C 12,3 C 80 % 1017,5 hPa 0,0 l/m 0,20 h 0,00 h 0,0 UV-I 44 W/m 0,0 km/h (0 Bft)
24.10.2013 18:00 13,1 C 10,6 C 90 % 1017,5 hPa 0,0 l/m 0,00 h 0,00 h 0,0 UV-I 11 W/m 0,0 km/h (0 Bft)
24.10.2013 19:00 11,5 C 9,3 C 94 % 1017,6 hPa 0,0 l/m 0,00 h 0,00 h 0,0 UV-I 0 W/m 0,0 km/h (0 Bft)
24.10.2013 20:00 10,7 C 8,7 C 96 % 1017,3 hPa 0,0 l/m 0,00 h 0,00 h 0,0 UV-I 0 W/m 0,0 km/h (0 Bft)
24.10.2013 21:00 9,9 C 8,0 C 96 % 1017,2 hPa 0,0 l/m 0,00 h 0,00 h 0,0 UV-I 0 W/m 0,0 km/h (0 Bft)
24.10.2013 22:00 9,4 C 7,8 C 97 % 1017,1 hPa 0,0 l/m 0,00 h 0,00 h 0,0 UV-I 0 W/m 0,0 km/h (0 Bft)
24.10.2013 23:00 9,7 C 7,6 C 98 % 1016,5 hPa 0,0 l/m 0,00 h 0,00 h 0,0 UV-I 0 W/m 0,1 km/h (0 Bft)
25.10.2013 00:00 10,5 C 8,9 C 98 % 1016,0 hPa 0,0 l/m 0,00 h 0,00 h 0,0 UV-I 0 W/m 1,2 km/h (1 Bft)
25.10.2013 01:00 10,9 C 9,4 C 98 % 1015,5 hPa 0,0 l/m 0,00 h 0,00 h 0,0 UV-I 0 W/m 3,7 km/h (1 Bft)
25.10.2013 02:00 11,2 C 10,0 C 98 % 1015,1 hPa 0,0 l/m 0,00 h 0,00 h 0,0 UV-I 0 W/m 4,3 km/h (1 Bft)
25.10.2013 03:00 11,3 C 10,0 C 97 % 1014,6 hPa 0,0 l/m 0,00 h 0,00 h 0,0 UV-I 0 W/m 2,7 km/h (1 Bft)
25.10.2013 04:00 11,6 C 10,4 C 96 % 1013,9 hPa 0,0 l/m 0,00 h 0,00 h 0,0 UV-I 0 W/m 6,4 km/h (2 Bft)
25.10.2013 05:00 12,1 C 10,7 C 95 % 1013,0 hPa 0,0 l/m 0,00 h 0,00 h 0,0 UV-I 0 W/m 11,1 km/h (2 Bft)
25.10.2013 06:00 12,5 C 11,1 C 93 % 1012,1 hPa 0,0 l/m 0,00 h 0,00 h 0,0 UV-I 0 W/m 15,4 km/h (3 Bft)
25.10.2013 07:00 12,8 C 11,5 C 92 % 1011,3 hPa 0,0 l/m 0,00 h 0,00 h 0,0 UV-I 0 W/m 19,0 km/h (3 Bft)
25.10.2013 08:00 13,1 C 11,8 C 92 % 1011,2 hPa 0,0 l/m 0,00 h 0,00 h 0,0 UV-I 10 W/m 16,0 km/h (3 Bft)
25.10.2013 09:00 13,7 C 12,4 C 90 % 1011,1 hPa 0,0 l/m 0,00 h 0,00 h 0,0 UV-I 34 W/m 19,7 km/h (3 Bft)
25.10.2013 10:00 14,2 C 13,0 C 90 % 1011,2 hPa 0,0 l/m 0,00 h 0,10 h 0,0 UV-I 56 W/m 16,2 km/h (3 Bft)
25.10.2013 11:00 14,3 C 12,6 C 91 % 1011,6 hPa 0,2 l/m 0,00 h 0,87 h 0,0 UV-I 49 W/m 11,4 km/h (2 Bft)
25.10.2013 12:00 14,3 C 12,7 C 95 % 1011,2 hPa 0,2 l/m 0,03 h 0,63 h 0,5 UV-I 118 W/m 20,1 km/h (4 Bft)
25.10.2013 13:00 15,8 C 14,3 C 92 % 1010,6 hPa 0,0 l/m 0,37 h 0,00 h 0,6 UV-I 241 W/m 21,7 km/h (4 Bft)
25.10.2013 14:00 16,5 C 15,0 C 91 % 1010,4 hPa 0,0 l/m 0,07 h 0,00 h 0,5 UV-I 191 W/m 18,2 km/h (3 Bft)
25.10.2013 15:00 17,3 C 16,4 C 90 % 1010,3 hPa 0,0 l/m 0,00 h 0,00 h 0,0 UV-I 125 W/m 7,6 km/h (2 Bft)
25.10.2013 16:00 17,6 C 16,3 C 90 % 1010,4 hPa 0,0 l/m 0,07 h 0,00 h 0,0 UV-I 79 W/m 5,5 km/h (1 Bft)
25.10.2013 17:00 17,7 C 16,0 C 90 % 1010,3 hPa 0,0 l/m 0,00 h 0,00 h 0,0 UV-I 45 W/m 7,7 km/h (2 Bft)
25.10.2013 18:00 17,4 C 15,2 C 91 % 1010,3 hPa 0,0 l/m 0,00 h 0,03 h 0,0 UV-I 12 W/m 3,5 km/h (1 Bft)
25.10.2013 19:00 17,6 C 14,9 C 90 % 1010,5 hPa 0,2 l/m 0,00 h 0,63 h 0,0 UV-I 0 W/m 5,4 km/h (1 Bft)
25.10.2013 20:00 17,1 C 14,5 C 93 % 1010,9 hPa 0,8 l/m 0,00 h 0,90 h 0,0 UV-I 0 W/m 10,0 km/h (2 Bft)
25.10.2013 21:00 16,2 C 14,4 C 96 % 1011,1 hPa 0,4 l/m 0,00 h 0,73 h 0,0 UV-I 0 W/m 3,6 km/h (1 Bft)
25.10.2013 22:00 16,1 C 14,4 C 98 % 1011,3 hPa 0,2 l/m 0,00 h 0,70 h 0,0 UV-I 0 W/m 1,5 km/h (1 Bft)
25.10.2013 23:00 15,8 C 13,9 C 98 % 1011,1 hPa 0,4 l/m 0,00 h 0,97 h 0,0 UV-I 0 W/m 0,0 km/h (0 Bft)
26.10.2013 00:00 15,6 C 13,9 C 99 % 1011,5 hPa 0,2 l/m 0,00 h 0,93 h 0,0 UV-I 0 W/m 1,0 km/h (0 Bft)
26.10.2013 01:00 15,4 C 13,9 C 99 % 1011,1 hPa 0,4 l/m 0,00 h 0,77 h 0,0 UV-I 0 W/m 2,1 km/h (1 Bft)
26.10.2013 02:00 15,1 C 13,7 C 99 % 1011,0 hPa 0,0 l/m 0,00 h 0,03 h 0,0 UV-I 0 W/m 5,1 km/h (1 Bft)
26.10.2013 03:00 14,8 C 13,2 C 99 % 1011,0 hPa 0,0 l/m 0,00 h 0,00 h 0,0 UV-I 0 W/m 1,3 km/h (1 Bft)
26.10.2013 04:00 14,5 C 12,9 C 99 % 1010,8 hPa 0,2 l/m 0,00 h 0,00 h 0,0 UV-I 0 W/m 1,4 km/h (1 Bft)
26.10.2013 05:00 14,2 C 12,7 C 99 % 1010,8 hPa 0,0 l/m 0,00 h 0,00 h 0,0 UV-I 0 W/m 1,2 km/h (1 Bft)
26.10.2013 06:00 13,9 C 12,2 C 99 % 1010,7 hPa 0,0 l/m 0,00 h 0,00 h 0,0 UV-I 0 W/m 0,2 km/h (0 Bft)
26.10.2013 07:00 13,8 C 12,2 C 99 % 1010,7 hPa 0,0 l/m 0,00 h 0,00 h 0,0 UV-I 0 W/m 0,0 km/h (0 Bft)
26.10.2013 08:00 14,3 C 12,9 C 99 % 1011,3 hPa 0,0 l/m 0,00 h 0,00 h 0,0 UV-I 9 W/m 1,3 km/h (1 Bft)
26.10.2013 09:00 14,8 C 13,3 C 99 % 1011,6 hPa 0,0 l/m 0,00 h 0,00 h 0,0 UV-I 30 W/m 0,7 km/h (0 Bft)
26.10.2013 10:00 15,4 C 14,1 C 99 % 1011,7 hPa 0,0 l/m 0,10 h 0,00 h 0,0 UV-I 108 W/m 3,9 km/h (1 Bft)
26.10.2013 11:00 17,6 C 14,9 C 93 % 1011,6 hPa 0,0 l/m 0,93 h 0,00 h 0,6 UV-I 295 W/m 5,7 km/h (1 Bft)
26.10.2013 12:00 19,1 C 16,4 C 84 % 1011,5 hPa 0,0 l/m 0,73 h 0,00 h 0,6 UV-I 297 W/m 14,2 km/h (3 Bft)
26.10.2013 13:00 20,4 C 18,2 C 77 % 1011,1 hPa 0,0 l/m 0,90 h 0,00 h 0,9 UV-I 368 W/m 13,8 km/h (3 Bft)
26.10.2013 14:00 21,0 C 18,9 C 72 % 1010,7 hPa 0,0 l/m 0,73 h 0,00 h 0,7 UV-I 339 W/m 15,4 km/h (3 Bft)
26.10.2013 15:00 21,2 C 18,8 C 70 % 1010,1 hPa 0,0 l/m 0,63 h 0,00 h 0,6 UV-I 248 W/m 13,9 km/h (3 Bft)
26.10.2013 16:00 20,4 C 18,2 C 73 % 1009,9 hPa 0,0 l/m 0,27 h 0,00 h 0,0 UV-I 130 W/m 14,6 km/h (3 Bft)
26.10.2013 17:00 19,5 C 17,3 C 79 % 1009,7 hPa 0,0 l/m 0,00 h 0,00 h 0,0 UV-I 36 W/m 10,0 km/h (2 Bft)
26.10.2013 18:00 18,6 C 16,7 C 84 % 1009,7 hPa 0,0 l/m 0,00 h 0,00 h 0,0 UV-I 7 W/m 11,8 km/h (2 Bft)
26.10.2013 19:00 17,8 C 15,7 C 86 % 1009,8 hPa 0,0 l/m 0,00 h 0,00 h 0,0 UV-I 0 W/m 9,1 km/h (2 Bft)
26.10.2013 20:00 17,0 C 14,8 C 88 % 1009,6 hPa 0,0 l/m 0,00 h 0,00 h 0,0 UV-I 0 W/m 3,8 km/h (1 Bft)
26.10.2013 21:00 16,1 C 13,9 C 92 % 1009,4 hPa 0,0 l/m 0,00 h 0,00 h 0,0 UV-I 0 W/m 2,0 km/h (1 Bft)
26.10.2013 22:00 15,6 C 13,5 C 94 % 1009,1 hPa 0,0 l/m 0,00 h 0,00 h 0,0 UV-I 0 W/m 2,4 km/h (1 Bft)
26.10.2013 23:00 15,4 C 13,3 C 93 % 1008,4 hPa 0,0 l/m 0,00 h 0,00 h 0,0 UV-I 0 W/m 1,4 km/h (1 Bft)
27.10.2013 00:00 15,5 C 13,4 C 94 % 1007,9 hPa 0,0 l/m 0,00 h 0,00 h 0,0 UV-I 0 W/m 5,8 km/h (2 Bft)
27.10.2013 01:00 15,4 C 13,4 C 94 % 1007,5 hPa 0,0 l/m 0,00 h 0,00 h 0,0 UV-I 0 W/m 2,5 km/h (1 Bft)
27.10.2013 02:00 16,0 C 14,1 C 90 % 1006,9 hPa 0,0 l/m 0,00 h 0,00 h 0,0 UV-I 0 W/m 10,6 km/h (2 Bft)
27.10.2013 03:00 16,3 C 14,4 C 84 % 1006,3 hPa 0,0 l/m 0,00 h 0,00 h 0,0 UV-I 0 W/m 15,4 km/h (3 Bft)
27.10.2013 04:00 15,9 C 14,0 C 84 % 1005,6 hPa 0,0 l/m 0,00 h 0,00 h 0,0 UV-I 0 W/m 15,5 km/h (3 Bft)
27.10.2013 05:00 15,4 C 13,4 C 83 % 1004,7 hPa 0,0 l/m 0,00 h 0,00 h 0,0 UV-I 0 W/m 16,3 km/h (3 Bft)
27.10.2013 06:00 15,2 C 13,3 C 81 % 1003,9 hPa 0,0 l/m 0,00 h 0,00 h 0,0 UV-I 0 W/m 18,2 km/h (3 Bft)
27.10.2013 07:00 15,1 C 13,3 C 79 % 1003,3 hPa 0,0 l/m 0,03 h 0,00 h 0,0 UV-I 17 W/m 19,7 km/h (3 Bft)
27.10.2013 08:00 15,5 C 13,9 C 78 % 1002,4 hPa 0,0 l/m 0,00 h 0,07 h 0,0 UV-I 37 W/m 20,4 km/h (4 Bft)
27.10.2013 09:00 15,8 C 13,5 C 81 % 1001,9 hPa 0,2 l/m 0,00 h 0,33 h 0,0 UV-I 32 W/m 29,4 km/h (5 Bft)
27.10.2013 10:00 16,2 C 14,1 C 79 % 1001,5 hPa 0,0 l/m 0,23 h 0,63 h 0,5 UV-I 164 W/m 39,2 km/h (6 Bft)
27.10.2013 11:00 16,8 C 15,2 C 74 % 1001,8 hPa 0,0 l/m 0,13 h 0,10 h 0,7 UV-I 173 W/m 33,5 km/h (5 Bft)
27.10.2013 12:00 16,2 C 15,0 C 76 % 1001,7 hPa 0,0 l/m 0,17 h 0,00 h 0,7 UV-I 143 W/m 30,9 km/h (5 Bft)
27.10.2013 13:00 15,4 C 14,2 C 77 % 1002,1 hPa 0,0 l/m 0,40 h 0,00 h 0,6 UV-I 230 W/m 21,0 km/h (4 Bft)
27.10.2013 14:00 16,1 C 14,7 C 75 % 1002,6 hPa 0,0 l/m 0,77 h 0,00 h 0,5 UV-I 284 W/m 26,0 km/h (4 Bft)
27.10.2013 15:00 15,7 C 14,1 C 73 % 1002,9 hPa 0,0 l/m 0,47 h 0,00 h 0,0 UV-I 127 W/m 21,1 km/h (4 Bft)
27.10.2013 16:00 15,5 C 13,8 C 71 % 1003,1 hPa 0,0 l/m 0,13 h 0,03 h 0,0 UV-I 39 W/m 22,5 km/h (4 Bft)
27.10.2013 17:00 15,0 C 12,7 C 74 % 1003,7 hPa 0,2 l/m 0,00 h 0,40 h 0,0 UV-I 5 W/m 18,6 km/h (3 Bft)
27.10.2013 18:00 13,1 C 11,6 C 86 % 1004,5 hPa 0,0 l/m 0,00 h 0,07 h 0,0 UV-I 0 W/m 16,0 km/h (3 Bft)
27.10.2013 19:00 13,3 C 11,7 C 83 % 1004,5 hPa 0,0 l/m 0,00 h 0,00 h 0,0 UV-I 0 W/m 20,1 km/h (4 Bft)
27.10.2013 20:00 13,5 C 11,9 C 81 % 1004,6 hPa 0,0 l/m 0,00 h 0,00 h 0,0 UV-I 0 W/m 17,0 km/h (3 Bft)
27.10.2013 21:00 14,2 C 12,4 C 78 % 1004,8 hPa 0,0 l/m 0,00 h 0,00 h 0,0 UV-I 0 W/m 18,4 km/h (3 Bft)
27.10.2013 22:00 14,4 C 12,8 C 77 % 1004,3 hPa 0,0 l/m 0,00 h 0,00 h 0,0 UV-I 0 W/m 20,7 km/h (4 Bft)
27.10.2013 23:00 14,0 C 12,0 C 82 % 1003,8 hPa 0,0 l/m 0,00 h 0,73 h 0,0 UV-I 0 W/m 19,0 km/h (3 Bft)
Min-Datum _ 24.10.13 24.10.13 23.10.13 27.10.13 - - - - - 21.10.13
_ Min-Zeit 22:58 22:58 16:32 10:28 - - - - - 00:08
Minimum _ 9,2 C 7,2 C 69 % 1001,0 hPa - - - - - 0,0 km/h (0 Bft)
Max-Datum _ 22.10.13 22.10.13 23.10.13 24.10.13 22.10.13 21.10.13 21.10.13 22.10.13 26.10.13 27.10.13
_ Max-Zeit 15:36 14:54 02:24 12:02 22:28 11:40 07:36 13:24 14:12 09:34
Maximum _ 22,9 C 21,1 C 99 % 1018,6 hPa 7,6 l/m 0,03 h 0,03 h 1,2 UV-I 543 W/m 61,9 km/h
S (7 Bft)
Durchschnitt _ 15,4 C 13,6 C 89 % 1009,4 hPa #17,0 l/m #20:49 h #16:22 h 0,7 UV-I 139 W/m 9,7 km/h (2 Bft)
© 2013 W. Hausmann